Time;durP1;ratioP1;P1;durP2;ratioP2;P2;SDS_P1;SDS_P2;PMS_P1;PMS_P2;Temp;Humidity;BMP_temperature;BMP_pressure;BME280_temperature;BME280_humidity;BME280_pressure;Samples;Min_cycle;Max_cycle;Signal;HPM_P1;HPM_P2
2022/11/09 00:00:03;;;;;;;11.98;2.75;;;13.20;75.20;;;;;;5041344;28;20099;-77
2022/11/09 00:02:48;;;;;;;8.88;2.70;;;13.20;75.20;;;;;;5056014;28;20633;-78
2022/11/09 00:05:33;;;;;;;9.15;2.28;;;13.20;75.20;;;;;;5044801;28;20079;-76
2022/11/09 00:08:18;;;;;;;10.05;3.40;;;13.20;75.20;;;;;;5046189;28;20031;-75
2022/11/09 00:11:07;;;;;;;16.20;2.40;;;13.20;75.20;;;;;;5049835;28;20058;-77
2022/11/09 00:13:52;;;;;;;9.05;2.22;;;13.20;75.20;;;;;;5051260;28;20155;-77
2022/11/09 00:16:36;;;;;;;9.45;2.78;;;13.10;75.10;;;;;;5043054;28;20137;-77
2022/11/09 00:19:22;;;;;;;8.65;2.63;;;13.10;75.10;;;;;;5050044;28;20110;-77
2022/11/09 00:22:06;;;;;;;12.07;2.53;;;13.10;75.10;;;;;;5053075;28;20039;-78
2022/11/09 00:24:51;;;;;;;9.20;2.28;;;13.10;75.20;;;;;;5041867;28;20063;-78
2022/11/09 00:27:35;;;;;;;9.45;2.55;;;13.10;75.20;;;;;;5051145;28;20043;-77
2022/11/09 00:30:20;;;;;;;8.73;2.38;;;13.00;75.00;;;;;;5052129;28;20183;-78
2022/11/09 00:33:05;;;;;;;12.95;2.50;;;13.00;75.00;;;;;;5051718;28;20164;-77
2022/11/09 00:35:50;;;;;;;8.50;2.50;;;13.00;75.00;;;;;;5080492;28;20404;-78
2022/11/09 00:38:35;;;;;;;9.50;2.60;;;13.10;75.20;;;;;;5059095;28;20095;-78
2022/11/09 00:41:21;;;;;;;13.48;2.97;;;13.00;75.00;;;;;;5061893;28;20040;-77
2022/11/09 00:44:06;;;;;;;6.40;1.98;;;13.00;75.00;;;;;;5050169;28;20052;-77
2022/11/09 00:46:51;;;;;;;11.60;2.80;;;13.00;75.00;;;;;;5069032;28;20068;-77
2022/11/09 00:49:35;;;;;;;9.00;2.38;;;13.00;74.90;;;;;;5057620;28;20064;-78
2022/11/09 00:52:20;;;;;;;10.32;2.88;;;13.00;74.90;;;;;;5072542;28;20120;-78
2022/11/09 00:55:05;;;;;;;10.52;2.25;;;13.00;75.00;;;;;;5056938;28;20134;-79
2022/11/09 00:57:50;;;;;;;12.05;2.38;;;13.00;75.00;;;;;;5055621;28;20055;-77
2022/11/09 01:00:36;;;;;;;11.02;4.15;;;13.00;75.50;;;;;;5060880;28;20114;-78
2022/11/09 01:03:22;;;;;;;10.02;2.08;;;13.00;75.00;;;;;;5060707;28;20434;-78
2022/11/09 01:06:07;;;;;;;9.55;2.40;;;13.00;75.00;;;;;;5061722;28;20068;-77
2022/11/09 01:08:53;;;;;;;8.45;2.78;;;13.00;75.00;;;;;;5061819;28;20044;-80
2022/11/09 01:11:37;;;;;;;9.90;2.17;;;13.00;75.00;;;;;;5062981;28;20060;-79
2022/11/09 01:14:22;;;;;;;9.15;2.22;;;13.00;75.00;;;;;;5062290;28;20075;-79
2022/11/09 01:17:07;;;;;;;12.20;2.60;;;13.00;75.10;;;;;;5062403;28;20040;-80
2022/11/09 01:19:51;;;;;;;11.50;3.25;;;12.90;74.90;;;;;;5060665;28;20079;-79
2022/11/09 01:22:36;;;;;;;7.10;1.73;;;12.90;74.90;;;;;;5061299;28;20509;-78
2022/11/09 01:25:20;;;;;;;9.68;2.20;;;13.00;75.10;;;;;;5060395;28;20071;-78
2022/11/09 01:28:06;;;;;;;8.75;2.55;;;12.90;75.00;;;;;;5062648;28;20184;-79
2022/11/09 01:30:53;;;;;;;7.70;2.47;;;12.90;75.00;;;;;;5054250;28;20112;-79
2022/11/09 01:33:38;;;;;;;9.57;2.90;;;12.90;75.00;;;;;;5062870;28;20449;-79
2022/11/09 01:36:23;;;;;;;8.07;2.90;;;12.90;75.00;;;;;;5060351;28;20102;-79
2022/11/09 01:39:08;;;;;;;7.88;3.00;;;12.90;75.00;;;;;;5053411;28;20052;-79
2022/11/09 01:41:56;;;;;;;6.03;2.72;;;12.90;75.00;;;;;;5058351;28;20068;-79
2022/11/09 01:44:40;;;;;;;7.32;2.13;;;12.90;75.00;;;;;;5060593;28;20035;-79
2022/11/09 01:47:25;;;;;;;12.73;2.17;;;12.80;74.90;;;;;;5054819;28;20051;-80
2022/11/09 01:50:12;;;;;;;8.68;2.72;;;12.80;74.90;;;;;;5049753;28;20063;-80
2022/11/09 01:52:58;;;;;;;10.48;2.10;;;12.80;74.90;;;;;;5060696;28;20448;-80
2022/11/09 01:55:44;;;;;;;9.18;2.58;;;12.80;75.00;;;;;;5053976;28;20083;-78
2022/11/09 01:58:36;;;;;;;6.50;2.22;;;12.80;74.90;;;;;;5049374;28;20068;-79
2022/11/09 02:01:21;;;;;;;8.25;2.30;;;12.80;75.00;;;;;;5053547;28;20071;-78
2022/11/09 02:04:18;;;;;;;8.63;2.22;;;12.80;75.00;;;;;;5056105;28;20055;-78
2022/11/09 02:07:04;;;;;;;9.85;2.25;;;12.80;75.10;;;;;;5038910;28;20040;-78
2022/11/09 02:10:00;;;;;;;8.95;2.40;;;12.80;75.00;;;;;;5055564;28;20047;-76
2022/11/09 02:12:45;;;;;;;10.45;3.03;;;12.80;75.10;;;;;;5059574;28;20058;-79
2022/11/09 02:15:30;;;;;;;11.23;2.47;;;12.80;75.10;;;;;;5043368;28;20359;-78
2022/11/09 02:18:15;;;;;;;8.93;2.22;;;12.80;75.10;;;;;;5035304;28;20291;-78
2022/11/09 02:20:59;;;;;;;7.65;2.28;;;12.80;75.10;;;;;;5056128;28;20469;-78
2022/11/09 02:23:45;;;;;;;9.65;2.13;;;12.80;75.10;;;;;;5057492;28;20098;-78
2022/11/09 02:27:03;;;;;;;8.05;1.92;;;12.80;75.10;;;;;;5039654;28;20044;-79
2022/11/09 02:29:49;;;;;;;13.10;2.15;;;12.80;75.10;;;;;;5027870;28;20241;-79
2022/11/09 02:32:34;;;;;;;10.13;3.08;;;12.80;75.00;;;;;;5052995;28;20040;-78
2022/11/09 02:35:19;;;;;;;8.07;2.80;;;12.80;75.00;;;;;;5039961;28;20047;-76
2022/11/09 02:38:09;;;;;;;11.88;2.72;;;12.80;75.00;;;;;;5038818;28;20091;-78
2022/11/09 02:40:54;;;;;;;10.90;2.05;;;12.80;75.00;;;;;;5057820;28;20063;-78
2022/11/09 02:43:39;;;;;;;8.18;1.90;;;12.80;75.10;;;;;;5058031;28;20539;-78
2022/11/09 02:46:30;;;;;;;6.35;1.60;;;12.80;75.10;;;;;;5059329;28;20102;-78
2022/11/09 02:49:15;;;;;;;14.02;2.72;;;12.80;75.10;;;;;;5055740;28;20412;-78
2022/11/09 02:52:00;;;;;;;9.57;1.95;;;12.80;75.10;;;;;;5037727;28;20335;-78
2022/11/09 02:54:45;;;;;;;7.32;1.48;;;12.80;75.10;;;;;;5033411;28;20575;-78
2022/11/09 02:57:30;;;;;;;4.63;1.80;;;12.80;75.10;;;;;;5042448;28;20168;-79
2022/11/09 03:00:16;;;;;;;6.10;1.65;;;12.80;75.10;;;;;;5047344;28;20063;-79
2022/11/09 03:03:02;;;;;;;7.22;1.88;;;12.80;75.10;;;;;;5056415;28;20063;-79
2022/11/09 03:05:47;;;;;;;8.82;1.95;;;12.80;75.10;;;;;;5055599;28;20052;-78
2022/11/09 03:08:32;;;;;;;8.18;2.38;;;12.80;75.10;;;;;;5053207;28;20676;-78
2022/11/09 03:11:16;;;;;;;7.55;1.83;;;12.80;75.10;;;;;;5055965;28;20056;-79
2022/11/09 03:14:02;;;;;;;8.85;2.03;;;12.80;75.10;;;;;;5034712;28;20045;-79
2022/11/09 03:16:48;;;;;;;9.02;2.60;;;12.90;75.20;;;;;;5038800;28;20040;-78
2022/11/09 03:19:32;;;;;;;9.43;2.35;;;12.90;75.20;;;;;;5040083;28;20106;-79
2022/11/09 03:22:18;;;;;;;6.32;1.50;;;12.90;75.20;;;;;;5056642;28;20059;-79
2022/11/09 03:25:04;;;;;;;6.13;1.60;;;12.90;75.10;;;;;;5056883;28;20165;-79
2022/11/09 03:27:48;;;;;;;4.65;1.42;;;12.90;75.10;;;;;;5053739;28;20040;-79
2022/11/09 03:30:33;;;;;;;5.85;1.30;;;12.90;75.10;;;;;;5056568;28;20048;-79
2022/11/09 03:33:18;;;;;;;8.15;1.60;;;12.90;75.00;;;;;;5056368;28;20139;-79
2022/11/09 03:36:03;;;;;;;6.13;2.00;;;13.00;75.20;;;;;;5055037;28;20164;-79
2022/11/09 03:38:48;;;;;;;4.75;1.30;;;13.00;75.10;;;;;;5055725;28;20099;-79
2022/11/09 03:41:34;;;;;;;6.25;1.65;;;13.00;75.10;;;;;;5056369;28;20114;-80
2022/11/09 03:44:19;;;;;;;7.13;1.90;;;13.00;75.00;;;;;;5023446;28;20039;-78
2022/11/09 03:47:03;;;;;;;6.25;1.33;;;13.00;75.00;;;;;;5042673;28;20068;-78
2022/11/09 03:49:48;;;;;;;8.75;1.20;;;13.00;75.00;;;;;;5054026;28;20044;-78
2022/11/09 03:52:33;;;;;;;5.78;1.92;;;12.90;74.80;;;;;;5055173;28;20056;-77
2022/11/09 03:55:18;;;;;;;7.57;1.25;;;12.90;74.80;;;;;;5054635;28;20067;-77
2022/11/09 03:58:04;;;;;;;3.90;1.40;;;12.90;74.90;;;;;;5056012;28;21014;-78
2022/11/09 04:00:48;;;;;;;8.57;2.00;;;12.80;74.70;;;;;;5052161;28;20051;-78
2022/11/09 04:03:33;;;;;;;4.32;1.60;;;12.90;74.90;;;;;;5056567;28;20445;-78
2022/11/09 04:06:18;;;;;;;3.60;1.13;;;12.80;74.70;;;;;;5056641;28;20047;-79
2022/11/09 04:09:03;;;;;;;5.70;1.70;;;12.80;74.70;;;;;;5055652;28;20044;-78
2022/11/09 04:11:47;;;;;;;5.35;1.42;;;12.80;74.70;;;;;;5049552;28;20566;-77
2022/11/09 04:14:32;;;;;;;5.82;2.15;;;12.80;74.70;;;;;;5044443;28;20052;-78
2022/11/09 04:17:16;;;;;;;4.25;1.00;;;12.80;74.80;;;;;;5057437;28;20044;-79
2022/11/09 04:20:01;;;;;;;2.85;1.25;;;12.80;74.70;;;;;;5054911;28;20096;-78
2022/11/09 04:22:53;;;;;;;4.72;0.90;;;12.80;74.70;;;;;;5057304;28;20122;-79
2022/11/09 04:25:39;;;;;;;4.70;1.13;;;12.70;74.60;;;;;;5056379;28;20048;-78
2022/11/09 04:28:25;;;;;;;3.88;1.27;;;12.70;75.10;;;;;;5054304;28;20036;-78
2022/11/09 04:31:09;;;;;;;3.03;0.90;;;12.70;74.50;;;;;;5052798;28;20031;-79
2022/11/09 04:33:54;;;;;;;4.25;0.80;;;12.70;74.50;;;;;;5055398;28;20708;-78
2022/11/09 04:36:39;;;;;;;5.70;1.05;;;12.70;74.50;;;;;;5056629;28;20535;-78
2022/11/09 04:39:23;;;;;;;1.67;0.75;;;12.70;74.50;;;;;;5052154;28;20047;-79
2022/11/09 04:42:08;;;;;;;2.90;0.75;;;12.70;74.40;;;;;;5054816;28;20039;-78
2022/11/09 04:44:52;;;;;;;3.35;0.88;;;12.70;74.40;;;;;;5055016;28;20136;-78
2022/11/09 04:47:37;;;;;;;3.88;0.70;;;12.60;74.20;;;;;;5053358;28;20770;-78
2022/11/09 04:50:22;;;;;;;2.25;0.68;;;12.60;74.20;;;;;;5054451;28;20122;-79
2022/11/09 04:53:14;;;;;;;1.63;0.50;;;12.60;74.20;;;;;;5047892;28;20597;-79
2022/11/09 04:55:58;;;;;;;3.05;0.73;;;12.60;74.20;;;;;;5051783;28;20100;-80
2022/11/09 04:58:43;;;;;;;2.45;1.20;;;12.60;74.20;;;;;;5050369;28;20043;-79
2022/11/09 05:01:27;;;;;;;4.10;1.23;;;12.60;74.20;;;;;;5042168;28;20056;-79
2022/11/09 05:04:12;;;;;;;1.88;0.50;;;12.60;74.20;;;;;;5042162;28;20645;-79
2022/11/09 05:06:57;;;;;;;3.25;0.75;;;12.60;74.20;;;;;;5012481;28;20052;-80
2022/11/09 05:09:41;;;;;;;2.53;0.90;;;12.60;74.20;;;;;;5045213;28;20117;-80
2022/11/09 05:12:26;;;;;;;1.75;0.60;;;12.50;74.00;;;;;;5031992;28;20118;-80
2022/11/09 05:15:11;;;;;;;7.32;1.25;;;12.50;74.00;;;;;;5028308;28;20040;-80
2022/11/09 05:17:56;;;;;;;3.75;0.85;;;12.50;74.10;;;;;;5028783;28;20043;-80
2022/11/09 05:20:40;;;;;;;2.35;0.52;;;12.50;74.00;;;;;;5027564;28;20417;-80
2022/11/09 05:26:39;;;;;;;2.67;0.73;;;12.50;74.10;;;;;;5026891;28;20051;-80
2022/11/09 05:29:23;;;;;;;2.88;0.88;;;12.60;74.30;;;;;;5027449;28;20111;-80
2022/11/09 05:32:07;;;;;;;2.80;0.70;;;12.50;74.10;;;;;;5025867;28;20051;-80
2022/11/09 05:34:52;;;;;;;1.00;0.50;;;12.50;74.10;;;;;;5027893;28;20041;-80
2022/11/09 05:37:38;;;;;;;3.45;0.70;;;12.60;74.30;;;;;;5030866;28;20048;-79
2022/11/09 05:40:23;;;;;;;3.58;0.70;;;12.60;74.30;;;;;;5029600;28;20040;-79
2022/11/09 05:43:07;;;;;;;2.60;0.65;;;12.60;74.30;;;;;;5046608;28;20191;-79
2022/11/09 05:45:52;;;;;;;1.92;0.82;;;12.60;74.40;;;;;;5048972;28;20044;-80
2022/11/09 05:48:36;;;;;;;1.40;0.50;;;12.60;74.40;;;;;;5045798;28;20056;-79
2022/11/09 05:51:22;;;;;;;1.25;0.40;;;12.60;74.40;;;;;;5045935;28;20048;-80
2022/11/09 05:54:07;;;;;;;2.50;0.50;;;12.60;74.40;;;;;;5034168;28;20183;-79
2022/11/09 05:56:52;;;;;;;3.28;1.05;;;12.70;74.60;;;;;;5045979;28;20076;-79
2022/11/09 05:59:37;;;;;;;2.20;0.70;;;12.70;74.70;;;;;;5044973;28;20048;-82
2022/11/09 06:02:22;;;;;;;1.77;0.52;;;12.70;74.80;;;;;;5046425;28;20662;-82
2022/11/09 06:05:07;;;;;;;2.92;1.10;;;12.70;74.80;;;;;;5046451;28;20055;-80
2022/11/09 06:07:51;;;;;;;1.48;0.60;;;12.70;74.90;;;;;;5041077;28;20173;-77
2022/11/09 06:10:36;;;;;;;3.83;1.27;;;12.70;75.00;;;;;;5045529;28;20044;-83
2022/11/09 06:13:20;;;;;;;2.30;0.55;;;12.70;75.30;;;;;;5052642;28;20198;-86
2022/11/09 06:16:05;;;;;;;2.60;0.95;;;12.80;75.60;;;;;;5030433;28;20211;-81
2022/11/09 06:18:50;;;;;;;0.85;0.55;;;12.80;75.80;;;;;;5049460;28;20052;-83
2022/11/09 06:21:34;;;;;;;2.15;0.63;;;12.80;76.00;;;;;;5047360;28;20047;-80
2022/11/09 06:24:19;;;;;;;1.83;1.00;;;12.80;76.30;;;;;;5055322;28;20036;-80
2022/11/09 06:27:04;;;;;;;2.15;0.68;;;12.90;76.60;;;;;;5042443;28;20164;-78
2022/11/09 06:29:48;;;;;;;3.78;0.70;;;12.90;76.80;;;;;;5066452;28;20082;-82
2022/11/09 06:32:33;;;;;;;3.65;0.70;;;12.90;77.00;;;;;;5045763;28;20040;-77
2022/11/09 06:35:17;;;;;;;2.92;0.80;;;12.90;77.10;;;;;;5049122;28;20044;-84
2022/11/09 06:38:02;;;;;;;2.92;0.52;;;13.00;77.50;;;;;;5037898;28;20040;-84
2022/11/09 06:40:51;;;;;;;3.13;0.70;;;13.00;77.60;;;;;;5045352;28;20111;-81
2022/11/09 06:43:35;;;;;;;3.42;0.75;;;13.00;77.80;;;;;;5040366;28;20060;-81
2022/11/09 06:46:20;;;;;;;1.67;0.80;;;13.00;77.80;;;;;;5041009;28;20079;-81
2022/11/09 06:49:04;;;;;;;2.75;1.02;;;13.10;78.10;;;;;;5044327;28;20039;-82
2022/11/09 06:51:49;;;;;;;2.08;0.82;;;13.10;78.30;;;;;;5044873;28;20523;-92
2022/11/09 06:54:33;;;;;;;5.03;2.05;;;13.20;78.50;;;;;;5036227;28;20098;-90
2022/11/09 06:57:17;;;;;;;3.28;1.13;;;13.20;78.70;;;;;;5044710;28;20044;-83
2022/11/09 07:00:04;;;;;;;6.80;1.13;;;13.20;78.80;;;;;;5034709;28;20107;-83
2022/11/09 07:02:50;;;;;;;3.50;1.00;;;13.30;79.10;;;;;;5047615;28;20117;-83
2022/11/09 07:05:38;;;;;;;7.85;2.03;;;13.30;79.20;;;;;;5047056;28;20043;-84
2022/11/09 07:08:23;;;;;;;8.40;2.45;;;13.30;79.40;;;;;;5050418;28;20396;-80
2022/11/09 07:11:11;;;;;;;10.77;3.33;;;13.40;79.60;;;;;;5046843;28;20091;-80
2022/11/09 07:13:56;;;;;;;15.07;3.50;;;13.40;79.60;;;;;;5051715;28;20098;-93
2022/11/09 07:16:40;;;;;;;18.40;5.40;;;13.40;79.50;;;;;;5060804;28;20146;-83
2022/11/09 07:19:26;;;;;;;18.70;4.68;;;13.30;79.40;;;;;;5053675;28;20311;-88
2022/11/09 07:22:11;;;;;;;17.10;5.53;;;13.30;79.40;;;;;;5061322;28;20087;-84
2022/11/09 07:24:55;;;;;;;13.73;4.05;;;13.30;79.50;;;;;;5065132;28;20031;-87
2022/11/09 07:27:40;;;;;;;13.57;3.65;;;13.30;79.50;;;;;;5047454;28;20582;-87
2022/11/09 07:30:25;;;;;;;11.77;3.70;;;13.30;79.50;;;;;;5035267;28;20035;-90
2022/11/09 07:33:16;;;;;;;13.13;4.45;;;13.20;79.40;;;;;;5040659;28;21383;-83
2022/11/09 07:36:03;;;;;;;12.95;3.40;;;13.30;80.10;;;;;;5038573;28;20510;-83
2022/11/09 07:38:48;;;;;;;13.75;3.83;;;13.20;79.90;;;;;;5041809;28;20056;-83
2022/11/09 07:41:32;;;;;;;13.57;3.70;;;13.30;79.50;;;;;;5041270;28;20052;-83
2022/11/09 07:44:17;;;;;;;13.15;3.65;;;13.30;79.50;;;;;;5044299;28;20408;-92
2022/11/09 07:47:02;;;;;;;9.27;2.97;;;13.20;79.30;;;;;;5044078;28;20836;-84
2022/11/09 07:49:46;;;;;;;10.23;3.30;;;13.30;79.40;;;;;;5042661;28;20039;-81
2022/11/09 07:52:31;;;;;;;8.75;2.13;;;13.30;79.30;;;;;;5044363;28;20416;-81
2022/11/09 07:55:16;;;;;;;14.15;2.83;;;13.20;79.10;;;;;;5033721;28;20043;-81
2022/11/09 07:58:08;;;;;;;9.90;2.95;;;13.20;79.00;;;;;;5043416;28;20051;-80
2022/11/09 08:00:53;;;;;;;9.63;2.67;;;13.20;78.90;;;;;;5042684;28;20063;-80
2022/11/09 08:03:37;;;;;;;13.60;3.50;;;13.20;78.90;;;;;;5044123;28;20118;-82
2022/11/09 08:06:26;;;;;;;12.13;2.55;;;13.20;78.90;;;;;;5043818;28;20040;-88
2022/11/09 08:09:10;;;;;;;9.68;1.98;;;13.20;78.80;;;;;;5043535;28;20082;-83
2022/11/09 08:11:54;;;;;;;8.68;2.55;;;13.20;78.80;;;;;;5039573;28;20044;-80
2022/11/09 08:14:39;;;;;;;7.68;2.00;;;13.20;78.80;;;;;;5039308;28;20158;-81
2022/11/09 08:17:24;;;;;;;9.52;3.13;;;13.20;78.80;;;;;;5044117;28;20036;-80
2022/11/09 08:20:08;;;;;;;8.32;2.13;;;13.20;78.80;;;;;;5027246;28;20222;-80
2022/11/09 08:22:53;;;;;;;6.38;1.67;;;13.20;78.80;;;;;;5044023;28;20151;-79
2022/11/09 08:25:38;;;;;;;9.13;1.98;;;13.20;78.80;;;;;;5039952;28;20048;-80
2022/11/09 08:28:22;;;;;;;7.53;1.90;;;13.30;78.90;;;;;;5042128;28;20047;-80
2022/11/09 08:31:07;;;;;;;7.07;2.00;;;13.20;78.70;;;;;;5043461;28;20047;-79
2022/11/09 08:33:52;;;;;;;8.10;1.45;;;13.30;78.80;;;;;;5030649;28;20044;-80
2022/11/09 08:36:36;;;;;;;7.55;2.38;;;13.30;78.70;;;;;;5043037;28;20082;-80
2022/11/09 08:39:22;;;;;;;7.43;1.60;;;13.40;78.80;;;;;;5035112;28;20128;-82
2022/11/09 08:42:07;;;;;;;4.40;2.00;;;13.40;78.90;;;;;;5029542;28;20048;-80
2022/11/09 08:44:51;;;;;;;7.97;2.65;;;13.50;78.70;;;;;;5031358;28;20432;-84
2022/11/09 08:47:37;;;;;;;10.63;1.55;;;13.50;78.60;;;;;;5021741;28;20591;-92
2022/11/09 08:50:21;;;;;;;4.97;2.03;;;13.50;78.50;;;;;;5032831;28;20036;-89
2022/11/09 08:53:06;;;;;;;7.53;1.80;;;13.50;78.50;;;;;;5043906;28;20095;-88
2022/11/09 08:55:51;;;;;;;9.18;1.83;;;13.50;78.50;;;;;;5043675;28;20048;-87
2022/11/09 08:58:36;;;;;;;7.38;1.48;;;13.50;78.50;;;;;;5041745;28;20102;-88
2022/11/09 09:01:20;;;;;;;4.78;1.48;;;13.60;78.60;;;;;;5036410;28;20052;-90
2022/11/09 09:04:05;;;;;;;6.10;1.70;;;13.60;78.50;;;;;;5033936;28;20218;-89
2022/11/09 09:06:49;;;;;;;7.80;1.40;;;13.60;78.40;;;;;;5041541;28;20091;-84
2022/11/09 09:09:37;;;;;;;7.80;2.15;;;13.60;78.40;;;;;;5034488;28;20056;-88
2022/11/09 09:12:21;;;;;;;10.57;2.33;;;13.70;78.50;;;;;;5026313;28;20040;-86
2022/11/09 09:15:06;;;;;;;6.70;1.48;;;13.70;78.40;;;;;;5036798;28;20048;-82
2022/11/09 09:17:51;;;;;;;5.55;1.33;;;13.70;78.30;;;;;;5045151;28;20039;-84
2022/11/09 09:20:37;;;;;;;7.68;1.63;;;13.60;78.20;;;;;;5045882;28;20372;-83
2022/11/09 09:23:21;;;;;;;5.93;1.50;;;13.70;78.40;;;;;;5046630;28;20083;-83
2022/11/09 09:26:06;;;;;;;8.13;1.70;;;13.70;78.40;;;;;;5046928;28;20112;-83
2022/11/09 09:28:51;;;;;;;5.78;1.60;;;13.70;78.50;;;;;;5046069;28;20332;-81
2022/11/09 09:31:35;;;;;;;6.80;1.73;;;13.80;78.50;;;;;;5047313;28;20094;-81
2022/11/09 09:34:20;;;;;;;7.35;1.52;;;13.80;78.40;;;;;;5039633;28;20043;-81
2022/11/09 09:37:05;;;;;;;7.63;1.58;;;13.80;78.30;;;;;;5034555;28;20246;-82
2022/11/09 09:39:50;;;;;;;7.85;2.03;;;13.80;78.30;;;;;;5046468;28;20044;-83
2022/11/09 09:42:36;;;;;;;12.00;1.77;;;13.90;78.40;;;;;;5041380;28;20071;-84
2022/11/09 09:45:27;;;;;;;6.65;2.00;;;13.90;78.30;;;;;;5047188;28;20148;-82
2022/11/09 09:48:14;;;;;;;4.38;1.60;;;14.00;78.40;;;;;;5037978;28;20526;-82
2022/11/09 09:51:04;;;;;;;8.27;2.20;;;14.10;78.30;;;;;;5046819;28;20073;-85
2022/11/09 09:53:55;;;;;;;8.30;1.60;;;14.10;78.20;;;;;;5034876;28;20250;-84
2022/11/09 09:56:43;;;;;;;6.65;1.55;;;14.20;78.20;;;;;;5035209;28;20200;-83
2022/11/09 09:59:42;;;;;;;5.80;1.77;;;14.30;78.10;;;;;;5046586;28;20110;-82
2022/11/09 10:02:34;;;;;;;4.80;1.40;;;14.30;78.00;;;;;;5033039;28;20052;-83
2022/11/09 10:05:26;;;;;;;5.45;1.50;;;14.30;77.90;;;;;;5046935;28;20067;-85
2022/11/09 10:08:20;;;;;;;5.88;1.40;;;14.40;78.00;;;;;;5040335;28;20171;-86
2022/11/09 10:11:42;;;;;;;5.28;1.10;;;14.40;77.90;;;;;;5046382;28;20152;-86
2022/11/09 10:14:32;;;;;;;5.65;1.92;;;14.40;77.80;;;;;;5026392;28;20676;-93
2022/11/09 10:17:33;;;;;;;8.35;1.48;;;14.30;77.70;;;;;;5042577;28;20036;-86
2022/11/09 10:20:27;;;;;;;5.43;1.17;;;14.40;77.90;;;;;;5041688;28;20131;-85
2022/11/09 10:23:40;;;;;;;8.90;1.80;;;14.40;77.80;;;;;;5045168;28;20097;-82
2022/11/09 10:26:40;;;;;;;7.43;1.88;;;14.40;77.70;;;;;;5045615;28;20087;-79
2022/11/09 10:29:34;;;;;;;9.32;1.83;;;14.40;77.70;;;;;;5042535;28;20078;-83
2022/11/09 10:32:23;;;;;;;11.52;2.88;;;14.40;77.60;;;;;;5025403;28;20044;-83
2022/11/09 10:35:20;;;;;;;5.18;1.60;;;14.40;77.60;;;;;;5044221;28;20543;-83
2022/11/09 10:38:19;;;;;;;6.60;1.52;;;14.40;77.60;;;;;;5042113;28;20131;-81
2022/11/09 10:41:29;;;;;;;5.75;1.40;;;14.50;77.70;;;;;;5045635;28;20118;-85
2022/11/09 10:44:32;;;;;;;7.68;2.25;;;14.50;77.60;;;;;;5045634;28;20067;-80
2022/11/09 10:47:48;;;;;;;12.88;3.63;;;14.50;77.40;;;;;;5045825;28;20060;-81
2022/11/09 10:50:52;;;;;;;10.88;2.40;;;14.60;77.50;;;;;;5039122;28;20056;-81
2022/11/09 10:54:19;;;;;;;12.68;2.78;;;14.60;77.40;;;;;;5041892;28;20158;-80
2022/11/09 10:57:23;;;;;;;9.43;3.08;;;14.50;77.20;;;;;;5036703;28;20036;-80
2022/11/09 11:00:27;;;;;;;10.52;3.42;;;14.60;77.40;;;;;;5036032;28;20366;-81
2022/11/09 11:03:35;;;;;;;6.20;1.55;;;14.50;77.30;;;;;;5040197;28;20154;-82
2022/11/09 11:06:39;;;;;;;18.90;3.10;;;14.50;77.30;;;;;;5039642;28;20183;-80
2022/11/09 11:09:43;;;;;;;14.80;3.08;;;14.40;77.20;;;;;;5043532;28;20035;-80
2022/11/09 11:12:58;;;;;;;11.50;2.50;;;14.40;77.30;;;;;;5043713;28;20351;-81
2022/11/09 11:16:23;;;;;;;11.93;2.97;;;14.40;77.40;;;;;;5044000;28;20047;-81
2022/11/09 11:19:36;;;;;;;12.43;3.05;;;14.40;77.40;;;;;;5030755;28;20099;-81
2022/11/09 11:22:39;;;;;;;7.95;1.75;;;14.50;77.60;;;;;;5031868;28;20132;-80
2022/11/09 11:25:54;;;;;;;6.95;1.98;;;14.50;77.50;;;;;;5033937;28;20100;-81
2022/11/09 11:29:05;;;;;;;11.40;2.28;;;14.60;77.60;;;;;;5044892;28;20156;-82
2022/11/09 11:32:18;;;;;;;7.82;1.45;;;14.70;77.60;;;;;;5043459;28;20047;-83
2022/11/09 11:35:28;;;;;;;7.07;1.90;;;14.80;77.70;;;;;;5044775;28;20493;-82
2022/11/09 11:38:38;;;;;;;10.68;1.65;;;14.90;77.60;;;;;;5044262;28;20539;-83
2022/11/09 11:41:42;;;;;;;7.35;1.40;;;15.10;77.80;;;;;;5053499;28;20515;-83
2022/11/09 11:45:12;;;;;;;4.40;1.20;;;15.20;77.70;;;;;;5050498;28;20504;-81
2022/11/09 11:48:25;;;;;;;8.55;1.10;;;15.40;77.60;;;;;;5043310;28;20106;-79
2022/11/09 11:51:42;;;;;;;7.30;2.15;;;15.60;77.50;;;;;;5041522;28;20503;-89
2022/11/09 11:54:55;;;;;;;9.30;1.67;;;15.70;77.30;;;;;;5043025;28;20099;-83
2022/11/09 11:58:27;;;;;;;6.57;1.20;;;15.90;77.40;;;;;;5045169;28;20606;-81
2022/11/09 12:01:50;;;;;;;4.53;1.75;;;16.10;77.40;;;;;;5042894;28;20044;-81
2022/11/09 12:05:22;;;;;;;6.30;1.70;;;16.30;77.10;;;;;;5044117;28;20115;-81
2022/11/09 12:08:43;;;;;;;5.90;2.25;;;16.50;77.10;;;;;;5043676;28;20048;-80
2022/11/09 12:11:59;;;;;;;12.38;2.28;;;16.60;76.90;;;;;;5039161;28;20118;-82
2022/11/09 12:15:20;;;;;;;6.78;1.65;;;16.60;76.60;;;;;;5034794;28;20043;-83
2022/11/09 12:18:36;;;;;;;9.48;1.33;;;16.60;76.50;;;;;;5033748;28;20523;-96
2022/11/09 12:21:54;;;;;;;6.63;1.20;;;16.60;76.40;;;;;;5033882;28;20044;-88
2022/11/09 12:25:28;;;;;;;9.10;2.00;;;16.60;76.40;;;;;;5033969;28;20057;-84
2022/11/09 12:28:46;;;;;;;7.55;2.42;;;16.60;76.40;;;;;;5043488;28;20051;-83
2022/11/09 12:32:30;;;;;;;5.43;1.60;;;16.70;76.40;;;;;;5045188;28;20458;-83
2022/11/09 12:35:45;;;;;;;6.13;1.50;;;16.90;76.10;;;;;;5040952;28;20082;-81
2022/11/09 12:39:11;;;;;;;5.95;1.48;;;16.90;75.80;;;;;;5037686;28;20371;-80
2022/11/09 12:42:20;;;;;;;7.40;1.85;;;16.90;75.50;;;;;;5043264;28;20913;-81
2022/11/09 12:45:37;;;;;;;9.18;1.80;;;16.90;75.60;;;;;;5040697;28;20067;-81
2022/11/09 12:48:40;;;;;;;7.47;1.60;;;16.90;75.40;;;;;;5043508;28;20132;-82
2022/11/09 12:51:43;;;;;;;5.28;1.55;;;16.80;75.20;;;;;;5039060;28;20403;-82
2022/11/09 12:54:47;;;;;;;;;;;16.80;75.10;;;;;;5042370;28;20075;-82
2022/11/09 12:57:50;;;;;;;8.82;1.48;;;16.80;75.00;;;;;;5047882;28;19973;-82
2022/11/09 13:00:59;;;;;;;5.70;1.05;;;16.80;74.90;;;;;;5042214;28;20048;-81
2022/11/09 13:04:04;;;;;;;5.68;0.95;;;16.80;74.70;;;;;;5042172;28;20040;-83
2022/11/09 13:07:08;;;;;;;3.95;1.10;;;16.80;74.60;;;;;;5034269;28;20088;-83
2022/11/09 13:10:36;;;;;;;4.53;1.08;;;16.70;74.40;;;;;;5048888;28;20060;-82
2022/11/09 13:13:39;;;;;;;7.78;1.05;;;16.60;74.20;;;;;;5039942;28;20048;-80
2022/11/09 13:16:42;;;;;;;3.75;1.15;;;16.50;74.20;;;;;;5048087;28;20138;-81
2022/11/09 13:19:50;;;;;;;7.85;1.17;;;16.50;74.20;;;;;;5040096;28;20245;-79
2022/11/09 13:22:53;;;;;;;7.85;1.90;;;16.40;74.10;;;;;;5042352;28;20076;-80
2022/11/09 13:25:56;;;;;;;8.43;1.85;;;16.30;74.00;;;;;;5055191;28;20056;-81
2022/11/09 13:29:18;;;;;;;;;;;16.20;73.70;;;;;;5054196;28;20542;-81
2022/11/09 13:32:28;;;;;;;6.47;1.55;;;16.30;74.00;;;;;;5059932;28;20169;-81
2022/11/09 13:35:40;;;;;;;4.22;0.90;;;16.20;73.80;;;;;;5069702;28;20104;-81
2022/11/09 13:38:46;;;;;;;3.65;0.70;;;16.20;73.60;;;;;;5058261;28;20040;-80
2022/11/09 13:41:50;;;;;;;4.07;0.75;;;16.10;73.40;;;;;;5047703;28;20106;-81
2022/11/09 13:45:13;;;;;;;4.47;0.60;;;16.00;73.20;;;;;;5047692;28;20051;-84
2022/11/09 13:48:42;;;;;;;3.67;0.85;;;16.00;73.20;;;;;;5042510;28;20517;-83
2022/11/09 13:51:47;;;;;;;2.03;0.77;;;16.00;73.00;;;;;;5041526;28;20056;-83
2022/11/09 13:54:52;;;;;;;4.45;0.80;;;15.90;73.00;;;;;;5042744;28;20098;-84
2022/11/09 13:58:02;;;;;;;4.78;0.70;;;15.90;72.90;;;;;;5047298;28;20043;-87
2022/11/09 14:01:22;;;;;;;6.38;1.08;;;15.90;72.80;;;;;;5042743;28;20109;-85
2022/11/09 14:04:26;;;;;;;11.02;2.80;;;15.90;72.70;;;;;;5044312;28;20095;-89
2022/11/09 14:07:34;;;;;;;5.05;0.80;;;15.80;72.50;;;;;;5046883;28;20134;-90
2022/11/09 14:11:05;;;;;;;6.05;1.52;;;15.80;72.40;;;;;;5047377;28;20201;-85
2022/11/09 14:14:41;;;;;;;4.20;1.00;;;15.80;72.40;;;;;;5041223;28;20040;-94
2022/11/09 14:17:47;;;;;;;6.75;1.90;;;15.80;72.40;;;;;;5054526;28;20044;-95
2022/11/09 14:20:56;;;;;;;7.72;1.40;;;15.70;72.30;;;;;;5050763;28;20479;-91
2022/11/09 14:24:12;;;;;;;4.85;1.25;;;15.80;72.40;;;;;;5050424;28;20229;-86
2022/11/09 14:27:20;;;;;;;4.43;1.25;;;15.80;72.40;;;;;;5049604;28;20507;-93
2022/11/09 14:30:26;;;;;;;4.55;1.13;;;15.80;72.40;;;;;;5046295;28;20491;-83
2022/11/09 14:33:33;;;;;;;5.50;2.10;;;15.80;72.30;;;;;;5047092;28;20503;-82
2022/11/09 14:36:41;;;;;;;5.60;1.17;;;15.90;72.30;;;;;;5047778;28;20199;-83
2022/11/09 14:39:49;;;;;;;4.20;1.17;;;16.00;72.30;;;;;;5043208;28;20553;-82
2022/11/09 14:42:58;;;;;;;6.82;1.63;;;16.00;72.30;;;;;;5037106;28;20109;-82
2022/11/09 14:46:04;;;;;;;6.43;1.40;;;16.10;72.30;;;;;;5044423;28;20511;-83
2022/11/09 14:49:09;;;;;;;4.65;1.05;;;16.20;72.20;;;;;;5043877;28;20415;-84
2022/11/09 14:52:16;;;;;;;6.25;1.70;;;16.30;72.10;;;;;;5033263;28;20139;-84
2022/11/09 14:55:22;;;;;;;7.32;1.30;;;16.30;71.90;;;;;;5045395;28;20456;-84
2022/11/09 14:58:28;;;;;;;7.47;1.92;;;16.30;71.80;;;;;;5038673;28;20036;-81
2022/11/09 15:01:32;;;;;;;7.32;1.50;;;16.30;71.80;;;;;;5045767;28;20128;-82